Time;durP1;ratioP1;P1;durP2;ratioP2;P2;SDS_P1;SDS_P2;PMS_P1;PMS_P2;Temp;Humidity;BMP_temperature;BMP_pressure;BME280_temperature;BME280_humidity;BME280_pressure;Samples;Min_cycle;Max_cycle;Signal;HPM_P1;HPM_P2
2021/11/25 00:00:50;;;;;;;;;;;19.40;30.00;;;;;;471845;251;1230;-77
2021/11/25 00:02:52;;;;;;;;;;;19.40;30.00;;;;;;478957;247;1112;-77
2021/11/25 00:04:53;;;;;;;;;;;19.40;30.00;;;;;;471904;251;941;-78
2021/11/25 00:06:54;;;;;;;;;;;19.30;30.00;;;;;;478911;247;1213;-77
2021/11/25 00:08:56;;;;;;;;;;;19.20;30.10;;;;;;471789;251;946;-78
2021/11/25 00:10:57;;;;;;;;;;;19.20;30.10;;;;;;478952;247;1143;-77
2021/11/25 00:12:58;;;;;;;;;;;19.20;30.20;;;;;;471864;251;2147;-77
2021/11/25 00:15:00;;;;;;;;;;;19.20;30.10;;;;;;479001;247;1112;-78
2021/11/25 00:17:01;;;;;;;;;;;19.10;30.20;;;;;;471847;251;1308;-78
2021/11/25 00:19:02;;;;;;;;;;;19.20;30.30;;;;;;479051;247;1001;-77
2021/11/25 00:21:04;;;;;;;;;;;19.30;30.10;;;;;;471869;251;954;-77
2021/11/25 00:23:05;;;;;;;;;;;19.30;30.10;;;;;;478967;247;1369;-77
2021/11/25 00:25:06;;;;;;;;;;;19.40;30.00;;;;;;471894;251;965;-77
2021/11/25 00:27:08;;;;;;;;;;;19.30;30.00;;;;;;478966;247;1225;-77
2021/11/25 00:29:09;;;;;;;;;;;19.30;30.10;;;;;;471962;251;1247;-77
2021/11/25 00:31:10;;;;;;;;;;;19.30;30.10;;;;;;479011;247;1232;-77
2021/11/25 00:33:12;;;;;;;;;;;19.20;30.00;;;;;;471876;251;2190;-78
2021/11/25 00:35:13;;;;;;;;;;;19.20;30.10;;;;;;479081;247;939;-77
2021/11/25 00:37:14;;;;;;;;;;;19.10;30.20;;;;;;471908;251;1254;-77
2021/11/25 00:39:16;;;;;;;;;;;19.10;30.40;;;;;;479033;247;1066;-77
2021/11/25 00:41:17;;;;;;;;;;;19.00;30.40;;;;;;471903;251;1228;-77
2021/11/25 00:43:18;;;;;;;;;;;18.90;30.50;;;;;;479017;247;1199;-77
2021/11/25 00:45:20;;;;;;;;;;;18.90;30.60;;;;;;471950;250;1237;-78
2021/11/25 00:47:21;;;;;;;;;;;18.90;30.60;;;;;;479034;247;1218;-77
2021/11/25 00:49:22;;;;;;;;;;;18.80;30.60;;;;;;471877;251;1138;-77
2021/11/25 00:51:24;;;;;;;;;;;18.80;30.70;;;;;;479048;247;1223;-77
2021/11/25 00:53:25;;;;;;;;;;;18.80;30.70;;;;;;471831;251;2182;-77
2021/11/25 00:55:26;;;;;;;;;;;18.80;30.70;;;;;;479036;247;971;-78
2021/11/25 00:57:28;;;;;;;;;;;18.80;30.80;;;;;;471895;251;1205;-78
2021/11/25 00:59:30;;;;;;;;;;;18.80;30.80;;;;;;479033;247;1137;-77
2021/11/25 01:01:32;;;;;;;;;;;18.80;30.80;;;;;;471808;250;1137;-77
2021/11/25 01:03:33;;;;;;;;;;;18.80;30.80;;;;;;479044;247;952;-77
2021/11/25 01:05:35;;;;;;;;;;;18.70;30.80;;;;;;471956;251;955;-77
2021/11/25 01:07:36;;;;;;;;;;;18.70;30.80;;;;;;479022;247;1209;-77
2021/11/25 01:09:37;;;;;;;;;;;18.70;30.80;;;;;;471819;251;971;-77
2021/11/25 01:11:39;;;;;;;;;;;18.70;30.80;;;;;;479022;247;1124;-77
2021/11/25 01:13:41;;;;;;;;;;;18.80;30.80;;;;;;471909;251;2217;-77
2021/11/25 01:15:41;;;;;;;;;;;18.80;30.70;;;;;;479052;248;1500;-77
2021/11/25 01:17:43;;;;;;;;;;;18.80;30.70;;;;;;471918;251;982;-78
2021/11/25 01:19:44;;;;;;;;;;;18.80;30.60;;;;;;479111;247;954;-77
2021/11/25 01:21:45;;;;;;;;;;;18.80;30.60;;;;;;471878;251;957;-77
2021/11/25 01:23:47;;;;;;;;;;;18.90;30.70;;;;;;478987;247;948;-77
2021/11/25 01:25:48;;;;;;;;;;;18.80;30.60;;;;;;471847;250;1026;-77
2021/11/25 01:27:49;;;;;;;;;;;18.80;30.60;;;;;;479119;247;1168;-77
2021/11/25 01:29:51;;;;;;;;;;;18.80;30.70;;;;;;471973;250;1191;-77
2021/11/25 01:31:52;;;;;;;;;;;18.80;30.80;;;;;;479027;247;1183;-77
2021/11/25 01:33:53;;;;;;;;;;;18.80;30.80;;;;;;471932;251;2206;-77
2021/11/25 01:35:55;;;;;;;;;;;18.80;30.80;;;;;;479070;247;1177;-77
2021/11/25 01:37:56;;;;;;;;;;;18.80;30.70;;;;;;471851;251;1068;-77
2021/11/25 01:39:57;;;;;;;;;;;18.80;30.70;;;;;;479097;247;917;-77
2021/11/25 01:41:59;;;;;;;;;;;18.80;30.80;;;;;;471893;251;1112;-77
2021/11/25 01:44:00;;;;;;;;;;;18.80;30.80;;;;;;479059;247;1179;-77
2021/11/25 01:46:01;;;;;;;;;;;18.90;30.80;;;;;;471963;250;1247;-77
2021/11/25 01:48:03;;;;;;;;;;;18.80;30.70;;;;;;479080;247;1130;-77
2021/11/25 01:50:04;;;;;;;;;;;18.80;30.80;;;;;;471907;251;1116;-77
2021/11/25 01:52:05;;;;;;;;;;;18.80;30.70;;;;;;479047;247;1228;-77
2021/11/25 01:54:07;;;;;;;;;;;18.80;30.70;;;;;;471878;251;2195;-78
2021/11/25 01:56:09;;;;;;;;;;;18.90;30.70;;;;;;479042;247;1176;-77
2021/11/25 01:58:09;;;;;;;;;;;18.90;30.70;;;;;;471906;251;1310;-77
2021/11/25 02:00:11;;;;;;;;;;;18.90;30.70;;;;;;479063;247;1154;-77
2021/11/25 02:02:13;;;;;;;;;;;18.80;30.60;;;;;;471852;251;1060;-77
2021/11/25 02:04:15;;;;;;;;;;;18.80;30.70;;;;;;479061;247;1026;-77
2021/11/25 02:06:17;;;;;;;;;;;18.80;30.70;;;;;;471858;251;1202;-77
2021/11/25 02:08:18;;;;;;;;;;;18.80;30.70;;;;;;479087;247;957;-77
2021/11/25 02:10:19;;;;;;;;;;;18.80;30.70;;;;;;471860;251;1233;-78
2021/11/25 02:12:21;;;;;;;;;;;18.80;30.70;;;;;;479079;247;1158;-77
2021/11/25 02:14:22;;;;;;;;;;;18.80;30.80;;;;;;471907;251;2178;-77
2021/11/25 02:16:24;;;;;;;;;;;18.80;30.70;;;;;;479126;247;1265;-78
2021/11/25 02:18:25;;;;;;;;;;;18.80;30.80;;;;;;471918;251;1086;-77
2021/11/25 02:20:26;;;;;;;;;;;18.80;30.70;;;;;;479029;247;1263;-77
2021/11/25 02:22:28;;;;;;;;;;;18.80;30.80;;;;;;471888;251;1156;-77
2021/11/25 02:24:29;;;;;;;;;;;18.80;30.80;;;;;;479146;247;962;-77
2021/11/25 02:26:30;;;;;;;;;;;18.80;30.80;;;;;;471894;251;1209;-77
2021/11/25 02:28:32;;;;;;;;;;;18.90;30.70;;;;;;479083;247;1057;-77
2021/11/25 02:30:33;;;;;;;;;;;18.80;30.60;;;;;;471957;250;1187;-77
2021/11/25 02:32:34;;;;;;;;;;;18.90;30.70;;;;;;479087;247;1015;-77
2021/11/25 02:34:36;;;;;;;;;;;18.80;30.60;;;;;;471895;251;2191;-77
2021/11/25 02:36:37;;;;;;;;;;;18.80;30.70;;;;;;479003;247;1337;-78
2021/11/25 02:38:38;;;;;;;;;;;18.80;30.60;;;;;;471867;251;951;-78
2021/11/25 02:40:40;;;;;;;;;;;18.80;30.70;;;;;;479060;247;988;-78
2021/11/25 02:42:41;;;;;;;;;;;18.80;30.60;;;;;;471850;251;1058;-77
2021/11/25 02:44:42;;;;;;;;;;;18.80;30.70;;;;;;478982;247;1158;-77
2021/11/25 02:46:45;;;;;;;;;;;18.80;30.80;;;;;;471844;251;1198;-77
2021/11/25 02:48:45;;;;;;;;;;;18.80;30.80;;;;;;479018;248;1519;-77
2021/11/25 02:50:46;;;;;;;;;;;18.80;30.80;;;;;;471917;251;1134;-77
2021/11/25 02:52:48;;;;;;;;;;;18.80;30.80;;;;;;479034;247;1074;-77
2021/11/25 02:54:49;;;;;;;;;;;18.80;30.80;;;;;;471887;250;2119;-77
2021/11/25 02:56:51;;;;;;;;;;;18.70;30.80;;;;;;479012;247;1127;-78
2021/11/25 02:58:52;;;;;;;;;;;18.70;30.80;;;;;;471938;251;965;-78
2021/11/25 03:00:53;;;;;;;;;;;18.70;30.80;;;;;;479066;247;1213;-78
2021/11/25 03:02:55;;;;;;;;;;;18.70;30.80;;;;;;471896;251;1146;-77
2021/11/25 03:04:56;;;;;;;;;;;18.70;30.80;;;;;;479077;247;1041;-78
2021/11/25 03:06:57;;;;;;;;;;;18.70;30.80;;;;;;471844;251;1122;-77
2021/11/25 03:08:59;;;;;;;;;;;18.70;30.80;;;;;;479059;247;985;-78
2021/11/25 03:11:00;;;;;;;;;;;18.80;30.80;;;;;;471914;250;1364;-77
2021/11/25 03:13:01;;;;;;;;;;;18.70;30.70;;;;;;479075;247;1059;-77
2021/11/25 03:15:03;;;;;;;;;;;18.70;30.80;;;;;;471867;250;2177;-77
2021/11/25 03:17:04;;;;;;;;;;;18.70;30.80;;;;;;478974;247;1338;-78
2021/11/25 03:19:05;;;;;;;;;;;18.70;30.90;;;;;;471917;251;948;-78
2021/11/25 03:21:07;;;;;;;;;;;18.70;30.90;;;;;;478956;247;1138;-77
2021/11/25 03:23:08;;;;;;;;;;;18.70;30.90;;;;;;471828;251;1164;-78
2021/11/25 03:25:09;;;;;;;;;;;18.70;30.90;;;;;;479043;247;966;-77
2021/11/25 03:27:11;;;;;;;;;;;18.70;30.80;;;;;;471807;250;1329;-77
2021/11/25 03:29:12;;;;;;;;;;;18.70;30.90;;;;;;479142;247;972;-77
2021/11/25 03:31:13;;;;;;;;;;;18.70;30.90;;;;;;471784;250;1225;-77
2021/11/25 03:33:15;;;;;;;;;;;18.70;30.90;;;;;;478995;247;1131;-78
2021/11/25 03:35:16;;;;;;;;;;;18.70;30.90;;;;;;471853;251;2191;-78
2021/11/25 03:37:17;;;;;;;;;;;18.60;30.90;;;;;;478924;247;1179;-78
2021/11/25 03:39:19;;;;;;;;;;;18.60;30.90;;;;;;471814;250;964;-77
2021/11/25 03:41:20;;;;;;;;;;;18.60;31.00;;;;;;478911;247;1319;-77
2021/11/25 03:43:21;;;;;;;;;;;18.70;31.00;;;;;;471888;251;955;-78
2021/11/25 03:45:23;;;;;;;;;;;18.60;31.00;;;;;;479070;247;1187;-77
2021/11/25 03:47:24;;;;;;;;;;;18.70;31.10;;;;;;471819;248;1098;-77
2021/11/25 03:49:25;;;;;;;;;;;18.60;31.00;;;;;;479076;247;976;-77
2021/11/25 03:51:27;;;;;;;;;;;18.70;31.00;;;;;;471842;250;1255;-78
2021/11/25 03:53:28;;;;;;;;;;;18.70;30.90;;;;;;479003;247;984;-77
2021/11/25 03:55:29;;;;;;;;;;;18.70;30.90;;;;;;471902;251;2171;-77
2021/11/25 03:57:31;;;;;;;;;;;18.70;31.00;;;;;;478992;247;1153;-77
2021/11/25 03:59:32;;;;;;;;;;;18.70;31.00;;;;;;471940;250;1066;-77
2021/11/25 04:01:33;;;;;;;;;;;18.70;31.00;;;;;;479028;247;1332;-78
2021/11/25 04:03:35;;;;;;;;;;;18.60;30.90;;;;;;471889;251;1131;-78
2021/11/25 04:05:36;;;;;;;;;;;18.60;31.00;;;;;;479016;247;1203;-78
2021/11/25 04:07:37;;;;;;;;;;;18.70;31.00;;;;;;471786;251;1174;-78
2021/11/25 04:09:39;;;;;;;;;;;18.70;31.00;;;;;;479063;247;1096;-77
2021/11/25 04:11:40;;;;;;;;;;;18.60;31.00;;;;;;471817;251;1201;-78
2021/11/25 04:13:41;;;;;;;;;;;18.60;31.00;;;;;;479050;247;1292;-78
2021/11/25 04:15:43;;;;;;;;;;;18.60;31.00;;;;;;471846;251;2179;-77
2021/11/25 04:17:44;;;;;;;;;;;18.60;31.00;;;;;;479020;247;1122;-77
2021/11/25 04:19:45;;;;;;;;;;;18.60;31.00;;;;;;471928;251;1003;-77
2021/11/25 04:21:47;;;;;;;;;;;18.60;31.00;;;;;;479082;247;1189;-78
2021/11/25 04:23:48;;;;;;;;;;;18.60;31.00;;;;;;471918;251;1202;-78
2021/11/25 04:25:49;;;;;;;;;;;18.60;31.00;;;;;;478959;247;1375;-77
2021/11/25 04:27:51;;;;;;;;;;;18.60;31.00;;;;;;471875;251;1151;-77
2021/11/25 04:29:59;;;;;;;;;;;18.60;31.10;;;;;;479063;247;1013;-78
2021/11/25 04:36:40;;;;;;;;;;;18.70;31.00;;;;;;471808;251;1239;-77
2021/11/25 04:38:41;;;;;;;;;;;18.70;31.00;;;;;;479024;247;982;-77
2021/11/25 04:40:43;;;;;;;;;;;18.80;30.90;;;;;;471808;251;1143;-77
2021/11/25 04:42:44;;;;;;;;;;;18.90;30.70;;;;;;478961;247;1015;-77
2021/11/25 04:44:46;;;;;;;;;;;18.90;30.70;;;;;;471897;251;1050;-77
2021/11/25 04:46:46;;;;;;;;;;;18.90;30.70;;;;;;478910;247;1215;-77
2021/11/25 04:48:48;;;;;;;;;;;19.00;30.60;;;;;;471875;251;971;-77
2021/11/25 04:50:49;;;;;;;;;;;19.00;30.50;;;;;;478981;247;1219;-77
2021/11/25 04:52:50;;;;;;;;;;;19.00;30.50;;;;;;471850;251;1059;-77
2021/11/25 04:54:52;;;;;;;;;;;19.00;30.50;;;;;;478926;247;2195;-77
2021/11/25 04:56:53;;;;;;;;;;;19.00;30.40;;;;;;471659;251;1213;-77
2021/11/25 04:58:54;;;;;;;;;;;19.10;30.50;;;;;;478940;247;943;-78
2021/11/25 05:00:56;;;;;;;;;;;19.10;30.40;;;;;;471825;251;1221;-78
2021/11/25 05:02:57;;;;;;;;;;;19.10;30.50;;;;;;478907;247;1125;-77
2021/11/25 05:04:59;;;;;;;;;;;19.00;30.40;;;;;;471850;251;984;-77
2021/11/25 05:07:00;;;;;;;;;;;19.00;30.40;;;;;;478968;247;1100;-77
2021/11/25 05:09:01;;;;;;;;;;;19.10;30.50;;;;;;471848;251;1095;-78
2021/11/25 05:11:03;;;;;;;;;;;19.00;30.40;;;;;;478940;247;1201;-78
2021/11/25 05:13:04;;;;;;;;;;;19.00;30.30;;;;;;471894;251;1122;-78
2021/11/25 05:15:05;;;;;;;;;;;19.10;30.40;;;;;;478974;247;2207;-78
2021/11/25 05:17:07;;;;;;;;;;;19.20;30.20;;;;;;471738;251;1213;-78
2021/11/25 05:19:08;;;;;;;;;;;19.10;30.20;;;;;;478947;247;1128;-78
2021/11/25 05:21:09;;;;;;;;;;;19.10;30.30;;;;;;471751;248;1244;-77
2021/11/25 05:23:11;;;;;;;;;;;19.10;30.30;;;;;;479010;247;1158;-78
2021/11/25 05:25:12;;;;;;;;;;;19.20;30.30;;;;;;471831;251;966;-78
2021/11/25 05:27:13;;;;;;;;;;;19.20;30.20;;;;;;478912;247;1072;-78
2021/11/25 05:29:15;;;;;;;;;;;19.40;30.10;;;;;;471631;250;1309;-78
2021/11/25 05:31:16;;;;;;;;;;;19.40;30.00;;;;;;478838;247;1220;-78
2021/11/25 05:33:17;;;;;;;;;;;19.50;29.90;;;;;;471742;251;1190;-77
2021/11/25 05:35:19;;;;;;;;;;;19.50;29.90;;;;;;478878;247;2186;-78
2021/11/25 05:37:20;;;;;;;;;;;19.40;30.00;;;;;;471686;251;1115;-77
2021/11/25 05:39:21;;;;;;;;;;;19.40;30.00;;;;;;478827;247;957;-78
2021/11/25 05:41:23;;;;;;;;;;;19.50;29.90;;;;;;471540;251;1228;-78
2021/11/25 05:43:24;;;;;;;;;;;19.50;30.00;;;;;;478913;247;1107;-78
2021/11/25 05:45:26;;;;;;;;;;;19.50;29.90;;;;;;471847;250;956;-77
2021/11/25 05:47:27;;;;;;;;;;;19.60;29.90;;;;;;478961;247;1150;-77
2021/11/25 05:49:28;;;;;;;;;;;19.70;29.80;;;;;;471725;250;958;-78
2021/11/25 05:51:29;;;;;;;;;;;19.50;29.70;;;;;;478754;247;1402;-78
2021/11/25 05:53:31;;;;;;;;;;;19.70;29.70;;;;;;471674;251;977;-78
2021/11/25 05:55:32;;;;;;;;;;;19.70;29.60;;;;;;478775;247;2195;-77
2021/11/25 05:57:33;;;;;;;;;;;19.70;29.70;;;;;;471681;251;1220;-77
2021/11/25 05:59:35;;;;;;;;;;;19.80;29.50;;;;;;478806;247;960;-77
2021/11/25 06:01:36;;;;;;;;;;;19.80;29.60;;;;;;471697;251;1210;-77
2021/11/25 06:03:37;;;;;;;;;;;19.70;29.60;;;;;;478873;247;1203;-77
2021/11/25 06:05:39;;;;;;;;;;;19.70;29.70;;;;;;471662;251;1185;-77
2021/11/25 06:07:44;;;;;;;;;;;19.60;29.70;;;;;;478731;247;963;-78
2021/11/25 06:09:42;;;;;;;;;;;19.60;29.80;;;;;;471450;252;1420;-78
2021/11/25 06:11:43;;;;;;;;;;;19.60;29.80;;;;;;478786;247;1236;-78
2021/11/25 06:13:45;;;;;;;;;;;19.70;29.70;;;;;;471561;251;954;-78
2021/11/25 06:15:47;;;;;;;;;;;19.50;29.70;;;;;;478585;247;2190;-77
2021/11/25 06:17:48;;;;;;;;;;;19.60;29.80;;;;;;471542;251;1170;-78
2021/11/25 06:19:53;;;;;;;;;;;19.60;29.80;;;;;;478853;247;1068;-77
2021/11/25 06:21:51;;;;;;;;;;;19.60;29.80;;;;;;471410;252;1310;-77
2021/11/25 06:23:52;;;;;;;;;;;19.70;29.70;;;;;;478743;247;969;-77
2021/11/25 06:25:53;;;;;;;;;;;19.70;29.70;;;;;;471575;251;1219;-77
2021/11/25 06:27:55;;;;;;;;;;;19.50;29.80;;;;;;478817;247;1035;-78
2021/11/25 06:29:56;;;;;;;;;;;19.60;29.80;;;;;;471566;251;971;-78
2021/11/25 06:31:57;;;;;;;;;;;19.70;29.70;;;;;;478643;247;1170;-78
2021/11/25 06:33:59;;;;;;;;;;;19.70;29.50;;;;;;471478;251;1199;-77
2021/11/25 06:36:00;;;;;;;;;;;19.90;29.70;;;;;;478621;247;2135;-77
2021/11/25 06:38:01;;;;;;;;;;;20.10;29.10;;;;;;471546;251;989;-77
2021/11/25 06:40:03;;;;;;;;;;;20.20;29.30;;;;;;478732;247;976;-78
2021/11/25 06:42:04;;;;;;;;;;;19.90;29.40;;;;;;470999;251;1223;-77
2021/11/25 06:44:06;;;;;;;;;;;19.90;29.60;;;;;;478650;247;1042;-77
2021/11/25 06:46:07;;;;;;;;;;;19.80;29.40;;;;;;471502;251;1246;-77
2021/11/25 06:48:08;;;;;;;;;;;19.80;29.60;;;;;;478543;247;1181;-77
2021/11/25 06:50:10;;;;;;;;;;;19.70;29.70;;;;;;471530;251;1014;-78
2021/11/25 06:52:11;;;;;;;;;;;19.70;29.70;;;;;;478640;247;1135;-77
2021/11/25 06:54:12;;;;;;;;;;;19.60;29.70;;;;;;471420;251;1117;-77
2021/11/25 06:56:14;;;;;;;;;;;19.80;29.50;;;;;;478547;247;2124;-77
2021/11/25 06:58:15;;;;;;;;;;;19.70;29.60;;;;;;471494;251;1062;-77
2021/11/25 07:00:16;;;;;;;;;;;19.60;29.70;;;;;;478706;247;1194;-78
2021/11/25 07:02:18;;;;;;;;;;;19.60;29.70;;;;;;471010;250;1164;-78
2021/11/25 07:04:19;;;;;;;;;;;19.70;29.70;;;;;;478462;247;1253;-78
2021/11/25 07:06:20;;;;;;;;;;;19.70;29.60;;;;;;471286;250;1141;-78
2021/11/25 07:08:22;;;;;;;;;;;19.60;29.70;;;;;;478458;247;1133;-77
2021/11/25 07:10:23;;;;;;;;;;;19.80;29.60;;;;;;471485;250;1075;-77
2021/11/25 07:12:24;;;;;;;;;;;19.70;29.60;;;;;;478443;247;1298;-77
2021/11/25 07:14:26;;;;;;;;;;;19.70;29.60;;;;;;471413;251;1145;-77
2021/11/25 07:16:27;;;;;;;;;;;19.70;29.70;;;;;;478579;247;2190;-78
2021/11/25 07:18:28;;;;;;;;;;;19.70;29.60;;;;;;471565;251;1846;-78
2021/11/25 07:20:30;;;;;;;;;;;19.80;29.60;;;;;;478584;247;1008;-77
2021/11/25 07:22:33;;;;;;;;;;;19.80;29.50;;;;;;471441;250;1124;-77
2021/11/25 07:24:32;;;;;;;;;;;19.70;29.60;;;;;;478515;248;1420;-77
2021/11/25 07:26:34;;;;;;;;;;;19.70;29.60;;;;;;471445;251;1164;-77
2021/11/25 07:28:35;;;;;;;;;;;19.70;29.70;;;;;;478471;247;955;-78
2021/11/25 07:30:36;;;;;;;;;;;19.70;29.60;;;;;;471251;251;973;-78
2021/11/25 07:32:38;;;;;;;;;;;19.70;29.70;;;;;;478352;247;1086;-77
2021/11/25 07:34:39;;;;;;;;;;;19.60;29.70;;;;;;471263;251;1194;-77
2021/11/25 07:36:40;;;;;;;;;;;19.70;29.70;;;;;;478386;247;2182;-77
2021/11/25 07:38:42;;;;;;;;;;;19.80;29.60;;;;;;471372;251;995;-78
2021/11/25 07:40:44;;;;;;;;;;;19.70;29.50;;;;;;478447;247;1122;-78
2021/11/25 07:42:44;;;;;;;;;;;19.80;29.60;;;;;;471333;252;1316;-77
2021/11/25 07:44:46;;;;;;;;;;;20.00;29.40;;;;;;478575;247;991;-78
2021/11/25 07:46:47;;;;;;;;;;;19.80;29.50;;;;;;471362;251;1071;-78
2021/11/25 07:48:48;;;;;;;;;;;19.70;29.60;;;;;;478392;247;1325;-78
2021/11/25 07:50:50;;;;;;;;;;;19.80;29.50;;;;;;471133;250;1093;-78
2021/11/25 07:52:51;;;;;;;;;;;19.90;29.60;;;;;;478396;247;1146;-77
2021/11/25 07:54:52;;;;;;;;;;;19.80;29.50;;;;;;471197;251;1147;-78
2021/11/25 07:56:57;;;;;;;;;;;19.90;29.40;;;;;;478371;247;2186;-78
2021/11/25 07:58:55;;;;;;;;;;;19.80;29.50;;;;;;471292;252;1569;-77
2021/11/25 08:00:57;;;;;;;;;;;19.80;29.50;;;;;;478505;247;1252;-78
2021/11/25 08:02:58;;;;;;;;;;;20.00;29.30;;;;;;471223;251;1115;-77
2021/11/25 08:04:59;;;;;;;;;;;19.90;29.40;;;;;;478341;247;1223;-78
2021/11/25 08:07:01;;;;;;;;;;;19.80;29.50;;;;;;471338;251;1172;-77
2021/11/25 08:09:02;;;;;;;;;;;19.90;29.50;;;;;;478228;247;938;-78
2021/11/25 08:11:03;;;;;;;;;;;19.90;29.50;;;;;;471130;250;1171;-77
2021/11/25 08:13:05;;;;;;;;;;;20.10;29.30;;;;;;478472;247;1100;-77
2021/11/25 08:15:06;;;;;;;;;;;19.90;29.40;;;;;;471080;251;1020;-78
2021/11/25 08:17:09;;;;;;;;;;;19.80;29.50;;;;;;478315;247;2190;-78
2021/11/25 08:19:09;;;;;;;;;;;19.90;29.40;;;;;;471345;251;1398;-78
2021/11/25 08:21:10;;;;;;;;;;;19.90;29.40;;;;;;478279;247;1138;-78
2021/11/25 08:23:12;;;;;;;;;;;19.70;29.50;;;;;;471122;251;1043;-77
2021/11/25 08:25:13;;;;;;;;;;;19.90;29.50;;;;;;478053;247;1279;-78
2021/11/25 08:27:14;;;;;;;;;;;19.80;29.50;;;;;;470805;251;1211;-78
2021/11/25 08:29:15;;;;;;;;;;;19.80;29.50;;;;;;478165;247;972;-78
2021/11/25 08:31:17;;;;;;;;;;;19.80;29.50;;;;;;471006;251;1074;-78
2021/11/25 08:33:18;;;;;;;;;;;19.80;29.60;;;;;;477616;247;1083;-78
2021/11/25 08:35:19;;;;;;;;;;;19.80;29.50;;;;;;471117;251;1221;-79
2021/11/25 08:37:21;;;;;;;;;;;20.40;29.00;;;;;;478386;247;2194;-79
2021/11/25 08:39:22;;;;;;;;;;;20.10;29.20;;;;;;471404;251;1290;-78
2021/11/25 08:41:25;;;;;;;;;;;19.80;29.50;;;;;;478158;247;1149;-77
2021/11/25 08:43:25;;;;;;;;;;;19.80;29.60;;;;;;471062;251;1390;-78
2021/11/25 08:45:27;;;;;;;;;;;19.80;29.60;;;;;;478300;247;1029;-77
2021/11/25 08:47:28;;;;;;;;;;;20.00;29.40;;;;;;471258;252;1385;-78
2021/11/25 08:49:29;;;;;;;;;;;19.80;29.60;;;;;;478085;247;1184;-78
2021/11/25 08:51:31;;;;;;;;;;;19.80;29.60;;;;;;470990;251;1118;-78
2021/11/25 08:53:32;;;;;;;;;;;20.00;29.50;;;;;;478249;247;1127;-78
2021/11/25 08:55:35;;;;;;;;;;;19.90;29.50;;;;;;471113;251;1213;-77
2021/11/25 08:57:34;;;;;;;;;;;19.80;29.50;;;;;;478219;247;2182;-78
2021/11/25 08:59:36;;;;;;;;;;;19.80;29.50;;;;;;471018;251;1268;-78
2021/11/25 09:01:37;;;;;;;;;;;19.70;29.60;;;;;;478231;247;1412;-77
2021/11/25 09:03:38;;;;;;;;;;;19.80;29.50;;;;;;471054;251;1097;-78
2021/11/25 09:05:40;;;;;;;;;;;19.80;29.60;;;;;;478278;247;1199;-77
2021/11/25 09:07:41;;;;;;;;;;;19.80;29.60;;;;;;471169;251;1136;-78
2021/11/25 09:09:42;;;;;;;;;;;19.80;29.60;;;;;;478220;247;961;-77
2021/11/25 09:11:44;;;;;;;;;;;19.80;29.50;;;;;;471090;250;1117;-77
2021/11/25 09:13:45;;;;;;;;;;;19.80;29.60;;;;;;478264;247;1068;-78
2021/11/25 09:15:47;;;;;;;;;;;19.80;29.50;;;;;;471136;251;1131;-78
2021/11/25 09:17:48;;;;;;;;;;;20.00;29.60;;;;;;478422;247;2259;-78
2021/11/25 09:19:49;;;;;;;;;;;19.80;29.50;;;;;;471133;251;1158;-77
2021/11/25 09:21:51;;;;;;;;;;;19.70;29.60;;;;;;478354;247;1187;-77
2021/11/25 09:23:52;;;;;;;;;;;19.70;29.60;;;;;;471174;251;1156;-77
2021/11/25 09:25:54;;;;;;;;;;;19.90;29.60;;;;;;478118;247;1222;-78
2021/11/25 09:27:55;;;;;;;;;;;19.80;29.60;;;;;;471279;252;1358;-78
2021/11/25 09:29:56;;;;;;;;;;;19.80;29.70;;;;;;478308;247;1130;-78
2021/11/25 09:31:57;;;;;;;;;;;19.70;29.70;;;;;;471275;251;1376;-78
2021/11/25 09:33:59;;;;;;;;;;;19.70;29.70;;;;;;478264;247;1040;-77
2021/11/25 09:36:00;;;;;;;;;;;19.70;29.70;;;;;;471099;251;2194;-78
2021/11/25 09:38:01;;;;;;;;;;;19.70;29.70;;;;;;477791;247;1161;-77
2021/11/25 09:40:03;;;;;;;;;;;19.80;29.60;;;;;;470972;251;1034;-78
2021/11/25 09:42:04;;;;;;;;;;;19.70;29.70;;;;;;478311;247;1241;-78
2021/11/25 09:44:05;;;;;;;;;;;19.70;29.70;;;;;;471136;251;989;-78
2021/11/25 09:46:07;;;;;;;;;;;19.80;29.70;;;;;;478137;247;1216;-78
2021/11/25 09:48:08;;;;;;;;;;;19.80;29.80;;;;;;471017;251;1108;-78
2021/11/25 09:50:09;;;;;;;;;;;19.70;29.70;;;;;;478086;245;1286;-77
2021/11/25 09:52:11;;;;;;;;;;;19.90;29.70;;;;;;471046;251;1089;-77
2021/11/25 09:54:12;;;;;;;;;;;20.00;29.70;;;;;;478116;247;1026;-78
2021/11/25 09:56:13;;;;;;;;;;;19.80;29.60;;;;;;470997;251;2198;-78
2021/11/25 09:58:15;;;;;;;;;;;19.80;29.60;;;;;;478180;247;1147;-78
2021/11/25 10:00:16;;;;;;;;;;;19.80;29.60;;;;;;471015;250;1133;-78
2021/11/25 10:02:17;;;;;;;;;;;19.80;29.60;;;;;;478127;247;1054;-77
2021/11/25 10:04:19;;;;;;;;;;;20.00;29.40;;;;;;471068;251;1064;-78
2021/11/25 10:06:20;;;;;;;;;;;19.90;29.50;;;;;;478217;247;1246;-78
2021/11/25 10:08:21;;;;;;;;;;;20.00;29.50;;;;;;471220;251;1254;-78
2021/11/25 10:10:24;;;;;;;;;;;19.90;29.50;;;;;;478312;247;1290;-78
2021/11/25 10:12:24;;;;;;;;;;;19.90;29.60;;;;;;471288;252;1349;-78
2021/11/25 10:14:25;;;;;;;;;;;19.80;29.60;;;;;;478161;247;1011;-77
2021/11/25 10:16:28;;;;;;;;;;;19.80;29.60;;;;;;470986;251;2202;-77
2021/11/25 10:18:28;;;;;;;;;;;19.90;29.80;;;;;;478294;247;1170;-77
2021/11/25 10:20:30;;;;;;;;;;;19.80;29.90;;;;;;471015;251;1484;-77
2021/11/25 10:22:31;;;;;;;;;;;19.90;29.70;;;;;;478185;247;1273;-77
2021/11/25 10:24:33;;;;;;;;;;;20.00;29.80;;;;;;471037;251;1044;-77
2021/11/25 10:26:34;;;;;;;;;;;19.90;29.70;;;;;;478097;247;1232;-78
2021/11/25 10:28:35;;;;;;;;;;;19.90;29.70;;;;;;470939;251;1155;-78
2021/11/25 10:30:36;;;;;;;;;;;19.80;29.70;;;;;;478213;247;1156;-78
2021/11/25 10:32:38;;;;;;;;;;;20.30;29.50;;;;;;471074;251;1120;-78
2021/11/25 10:34:43;;;;;;;;;;;20.10;29.50;;;;;;478102;247;1075;-78
2021/11/25 10:36:55;;;;;;;;;;;20.50;29.20;;;;;;470788;252;2194;-78
2021/11/25 10:39:01;;;;;;;;;;;20.10;29.30;;;;;;477894;248;1333;-78
2021/11/25 10:41:01;;;;;;;;;;;20.00;29.60;;;;;;470977;252;1274;-78
2021/11/25 10:43:02;;;;;;;;;;;20.00;29.50;;;;;;478396;247;1106;-78
2021/11/25 10:45:03;;;;;;;;;;;19.90;29.60;;;;;;471418;251;961;-78
2021/11/25 10:47:06;;;;;;;;;;;19.90;29.70;;;;;;478318;247;1208;-78
2021/11/25 10:49:06;;;;;;;;;;;19.90;29.70;;;;;;471089;252;1359;-77
2021/11/25 10:51:07;;;;;;;;;;;19.80;29.70;;;;;;478117;247;1171;-78
2021/11/25 10:53:09;;;;;;;;;;;19.80;29.70;;;;;;471274;251;1052;-78
2021/11/25 10:55:12;;;;;;;;;;;19.80;29.80;;;;;;478311;247;1079;-78
2021/11/25 10:57:11;;;;;;;;;;;19.90;29.60;;;;;;471157;252;2198;-78
2021/11/25 10:59:14;;;;;;;;;;;19.90;29.70;;;;;;478491;247;843;-78
2021/11/25 11:01:14;;;;;;;;;;;19.90;29.70;;;;;;471249;251;1401;-78
2021/11/25 11:03:19;;;;;;;;;;;19.90;29.70;;;;;;478265;247;1414;-78
2021/11/25 11:05:21;;;;;;;;;;;19.90;29.70;;;;;;470761;252;1297;-77
2021/11/25 11:07:19;;;;;;;;;;;19.90;29.70;;;;;;478076;248;1540;-78
2021/11/25 11:09:20;;;;;;;;;;;20.00;29.60;;;;;;471115;250;1238;-78
2021/11/25 11:11:22;;;;;;;;;;;19.90;29.70;;;;;;478283;247;1481;-78
2021/11/25 11:13:35;;;;;;;;;;;19.90;29.70;;;;;;470962;251;1494;-78
2021/11/25 11:15:33;;;;;;;;;;;20.00;29.60;;;;;;477812;248;1306;-78
2021/11/25 11:17:33;;;;;;;;;;;19.90;29.70;;;;;;470871;252;2190;-77
2021/11/25 11:19:33;;;;;;;;;;;20.00;29.70;;;;;;478200;247;1638;-77
2021/11/25 11:21:34;;;;;;;;;;;19.90;29.70;;;;;;471194;251;1250;-77
2021/11/25 11:23:36;;;;;;;;;;;19.90;29.70;;;;;;478289;247;990;-78
2021/11/25 11:25:38;;;;;;;;;;;19.90;29.70;;;;;;471227;251;969;-78
2021/11/25 11:27:38;;;;;;;;;;;19.80;29.80;;;;;;478357;247;1288;-78
2021/11/25 11:29:40;;;;;;;;;;;19.80;29.70;;;;;;471114;251;1071;-78
2021/11/25 11:31:41;;;;;;;;;;;20.00;29.70;;;;;;478155;247;1477;-77
2021/11/25 11:33:42;;;;;;;;;;;20.00;29.70;;;;;;471144;250;1101;-78
2021/11/25 11:35:43;;;;;;;;;;;20.00;29.60;;;;;;478294;247;1075;-78
2021/11/25 11:37:45;;;;;;;;;;;20.00;29.50;;;;;;471172;251;2187;-78
2021/11/25 11:39:46;;;;;;;;;;;20.00;29.60;;;;;;478170;247;1023;-78
2021/11/25 11:41:47;;;;;;;;;;;19.90;29.70;;;;;;471080;250;1239;-78
2021/11/25 11:43:49;;;;;;;;;;;20.00;29.70;;;;;;478271;247;1069;-78
2021/11/25 11:45:51;;;;;;;;;;;19.90;29.70;;;;;;471108;251;1295;-78
2021/11/25 11:47:52;;;;;;;;;;;19.90;29.70;;;;;;478458;247;1139;-77
2021/11/25 11:49:53;;;;;;;;;;;19.80;29.70;;;;;;471184;251;1412;-77
2021/11/25 11:51:54;;;;;;;;;;;19.80;29.70;;;;;;478112;247;1146;-78
2021/11/25 11:53:57;;;;;;;;;;;20.00;29.60;;;;;;471079;251;1430;-77
2021/11/25 11:55:57;;;;;;;;;;;20.00;29.60;;;;;;478341;247;1388;-77
2021/11/25 11:57:59;;;;;;;;;;;20.00;29.50;;;;;;471068;251;2191;-78
2021/11/25 12:00:00;;;;;;;;;;;20.00;29.60;;;;;;478266;247;1062;-77
2021/11/25 12:02:02;;;;;;;;;;;20.10;29.50;;;;;;471230;251;1104;-77